KCGI

Cape Girardeau Regional Airport

Cape Girardeau, Missouri, USA
KCGI 210948Z 2110/2206 20005KT P6SM VCSH SCT012 BKN050 TEMPO 2110/2113 BKN009 FM211400 23005KT P6SM SCT030 BKN050 FM211700 24009KT P6SM VCTS SCT035CB BKN150 FM212200 26005KT P6SM SCT150
Issued Valid From Valid To
Jun-21 @ 09:48 UTC
(19 minutes ago)
Jun-21 @ 10:00 UTC
(7 minutes ago)
Jun-22 @ 06:00 UTC
(in 20 hours)
Jun-21 @ 10:00 to Jun-21 @ 14:00
KCGI 210948Z 2110/2206 20005KT P6SM VCSH SCT012 BKN050
Wind Visibility Clouds
200° at 5 knots Greater than 6 miles
  • Scattered at 1,200' AGL
  • Broken at 5,000' AGL
Temporary Jun-21 @ 10:00 to Jun-21 @ 13:00
TEMPO 2110/2113 BKN009
Clouds
  • Broken at 900' AGL
From Jun-21 @ 14:00 to Jun-21 @ 17:00
FM211400 23005KT P6SM SCT030 BKN050
Wind Visibility Clouds
230° at 5 knots Greater than 6 miles
  • Scattered at 3,000' AGL
  • Broken at 5,000' AGL
From Jun-21 @ 17:00 to Jun-21 @ 22:00
FM211700 24009KT P6SM VCTS SCT035CB BKN150
Wind Visibility Clouds Conditions
240° at 9 knots Greater than 6 miles
  • Scattered at 3,500' AGL
  • Broken at 15,000' AGL
  • Area Thunderstorm
From Jun-21 @ 22:00 to Jun-22 @ 06:00
FM212200 26005KT P6SM SCT150
Wind Visibility Clouds
260° at 5 knots Greater than 6 miles
  • Scattered at 15,000' AGL
KCGI 210948Z 2110/2206 20005KT P6SM VCSH SCT012 BKN050 TEMPO 2110/2113 BKN009 FM211400 23005KT P6SM SCT030 BKN050 FM211700 24009KT P6SM VCTS SCT035CB BKN150 FM212200 26005KT P6SM SCT150
Issued Jun-21 @ 09:48 UTC
(19 minutes ago)
Valid From Jun-21 @ 10:00 UTC
(7 minutes ago)
Valid To Jun-22 @ 06:00 UTC
(in 20 hours)
Jun-21 @ 10:00 - Jun-21 @ 14:00
Wind Visibility
200° at 5 knots Greater than 6 miles
Clouds
  • Scattered at 1,200' AGL
  • Broken at 5,000' AGL
Temporary Jun-21 @ 10:00 - Jun-21 @ 13:00
Clouds
  • Broken at 900' AGL
From Jun-21 @ 14:00 - Jun-21 @ 17:00
Wind Visibility
230° at 5 knots Greater than 6 miles
Clouds
  • Scattered at 3,000' AGL
  • Broken at 5,000' AGL
From Jun-21 @ 17:00 - Jun-21 @ 22:00
Wind Visibility
240° at 9 knots Greater than 6 miles
Clouds
  • Scattered at 3,500' AGL
  • Broken at 15,000' AGL
Conditions
  • Area Thunderstorm
From Jun-21 @ 22:00 - Jun-22 @ 06:00
Wind Visibility
260° at 5 knots Greater than 6 miles
Clouds
  • Scattered at 15,000' AGL